sensor_id;sensor_type;location;lat;lon;timestamp;temperature;humidity
11736;DHT22;5924;51.398;7.088;2023-04-01T00:01:38;8.80;99.90
11736;DHT22;5924;51.398;7.088;2023-04-01T00:04:04;8.80;99.90
11736;DHT22;5924;51.398;7.088;2023-04-01T00:06:30;8.80;99.90
11736;DHT22;5924;51.398;7.088;2023-04-01T00:08:56;8.80;99.90
11736;DHT22;5924;51.398;7.088;2023-04-01T00:11:21;8.70;99.90
11736;DHT22;5924;51.398;7.088;2023-04-01T00:13:47;8.70;99.90
11736;DHT22;5924;51.398;7.088;2023-04-01T00:16:13;8.80;99.90
11736;DHT22;5924;51.398;7.088;2023-04-01T00:18:40;8.80;99.90
11736;DHT22;5924;51.398;7.088;2023-04-01T00:21:06;8.20;99.90
11736;DHT22;5924;51.398;7.088;2023-04-01T00:23:32;8.80;99.90
11736;DHT22;5924;51.398;7.088;2023-04-01T00:26:00;8.70;99.90
11736;DHT22;5924;51.398;7.088;2023-04-01T00:28:26;8.80;99.90
11736;DHT22;5924;51.398;7.088;2023-04-01T00:30:52;8.80;99.90
11736;DHT22;5924;51.398;7.088;2023-04-01T00:33:18;8.60;99.90
11736;DHT22;5924;51.398;7.088;2023-04-01T00:35:44;8.80;99.90
11736;DHT22;5924;51.398;7.088;2023-04-01T00:38:10;8.80;99.90
11736;DHT22;5924;51.398;7.088;2023-04-01T00:40:46;8.80;99.90
11736;DHT22;5924;51.398;7.088;2023-04-01T00:43:15;8.80;99.90
11736;DHT22;5924;51.398;7.088;2023-04-01T00:45:42;8.80;99.90
11736;DHT22;5924;51.398;7.088;2023-04-01T00:48:19;8.70;99.90
11736;DHT22;5924;51.398;7.088;2023-04-01T00:50:51;8.70;99.90
11736;DHT22;5924;51.398;7.088;2023-04-01T00:53:18;8.80;99.90
11736;DHT22;5924;51.398;7.088;2023-04-01T00:55:55;8.80;99.90
11736;DHT22;5924;51.398;7.088;2023-04-01T00:58:24;8.70;99.90
11736;DHT22;5924;51.398;7.088;2023-04-01T01:00:50;8.70;99.90
11736;DHT22;5924;51.398;7.088;2023-04-01T01:03:16;8.70;99.90
11736;DHT22;5924;51.398;7.088;2023-04-01T01:06:08;8.70;99.90
11736;DHT22;5924;51.398;7.088;2023-04-01T01:09:01;8.70;99.90
11736;DHT22;5924;51.398;7.088;2023-04-01T01:12:29;8.70;99.90
11736;DHT22;5924;51.398;7.088;2023-04-01T01:15:15;8.70;99.90
11736;DHT22;5924;51.398;7.088;2023-04-01T01:26:14;8.70;99.90
11736;DHT22;5924;51.398;7.088;2023-04-01T01:31:37;8.60;99.90
11736;DHT22;5924;51.398;7.088;2023-04-01T01:34:27;8.60;99.90
11736;DHT22;5924;51.398;7.088;2023-04-01T01:36:58;8.60;99.90
11736;DHT22;5924;51.398;7.088;2023-04-01T01:39:29;8.60;99.90
11736;DHT22;5924;51.398;7.088;2023-04-01T01:41:57;8.60;99.90
11736;DHT22;5924;51.398;7.088;2023-04-01T01:44:27;8.60;99.90
11736;DHT22;5924;51.398;7.088;2023-04-01T01:46:54;8.60;99.90
11736;DHT22;5924;51.398;7.088;2023-04-01T01:49:21;8.60;99.90
11736;DHT22;5924;51.398;7.088;2023-04-01T01:51:48;8.60;99.90
11736;DHT22;5924;51.398;7.088;2023-04-01T01:54:17;8.60;99.90
11736;DHT22;5924;51.398;7.088;2023-04-01T01:56:47;8.60;99.90
11736;DHT22;5924;51.398;7.088;2023-04-01T01:59:16;8.60;99.90
11736;DHT22;5924;51.398;7.088;2023-04-01T02:01:46;8.60;99.90
11736;DHT22;5924;51.398;7.088;2023-04-01T02:04:14;8.60;99.90
11736;DHT22;5924;51.398;7.088;2023-04-01T02:06:47;8.60;99.90
11736;DHT22;5924;51.398;7.088;2023-04-01T02:09:15;8.60;99.90
11736;DHT22;5924;51.398;7.088;2023-04-01T02:11:53;8.60;99.90
11736;DHT22;5924;51.398;7.088;2023-04-01T02:14:28;8.60;99.90
11736;DHT22;5924;51.398;7.088;2023-04-01T02:17:05;8.60;99.90
11736;DHT22;5924;51.398;7.088;2023-04-01T02:19:38;8.60;99.90
11736;DHT22;5924;51.398;7.088;2023-04-01T02:22:08;8.60;99.90
11736;DHT22;5924;51.398;7.088;2023-04-01T02:24:35;7.60;99.90
11736;DHT22;5924;51.398;7.088;2023-04-01T02:27:03;8.60;99.90
11736;DHT22;5924;51.398;7.088;2023-04-01T02:29:29;8.60;99.90
11736;DHT22;5924;51.398;7.088;2023-04-01T02:31:55;8.50;99.90
11736;DHT22;5924;51.398;7.088;2023-04-01T02:34:22;8.50;99.90
11736;DHT22;5924;51.398;7.088;2023-04-01T02:36:49;8.50;99.90
11736;DHT22;5924;51.398;7.088;2023-04-01T02:39:16;8.50;99.90
11736;DHT22;5924;51.398;7.088;2023-04-01T02:41:45;8.60;99.90
11736;DHT22;5924;51.398;7.088;2023-04-01T02:44:14;8.50;99.90
11736;DHT22;5924;51.398;7.088;2023-04-01T02:46:40;8.50;99.90
11736;DHT22;5924;51.398;7.088;2023-04-01T02:49:06;8.50;99.90
11736;DHT22;5924;51.398;7.088;2023-04-01T02:51:32;8.50;99.90
11736;DHT22;5924;51.398;7.088;2023-04-01T02:53:58;8.50;99.90
11736;DHT22;5924;51.398;7.088;2023-04-01T02:56:24;8.50;99.90
11736;DHT22;5924;51.398;7.088;2023-04-01T02:58:49;8.50;99.90
11736;DHT22;5924;51.398;7.088;2023-04-01T03:01:16;8.50;99.90
11736;DHT22;5924;51.398;7.088;2023-04-01T03:03:41;8.50;99.90
11736;DHT22;5924;51.398;7.088;2023-04-01T03:06:12;8.50;99.90
11736;DHT22;5924;51.398;7.088;2023-04-01T03:08:38;8.50;99.90
11736;DHT22;5924;51.398;7.088;2023-04-01T03:11:04;8.50;99.90
11736;DHT22;5924;51.398;7.088;2023-04-01T03:13:30;8.50;99.90
11736;DHT22;5924;51.398;7.088;2023-04-01T03:15:56;8.40;99.90
11736;DHT22;5924;51.398;7.088;2023-04-01T03:18:22;8.40;99.90
11736;DHT22;5924;51.398;7.088;2023-04-01T03:20:47;8.40;99.90
11736;DHT22;5924;51.398;7.088;2023-04-01T03:23:13;9.40;99.90
11736;DHT22;5924;51.398;7.088;2023-04-01T03:25:39;8.50;99.90
11736;DHT22;5924;51.398;7.088;2023-04-01T03:28:05;8.40;99.90
11736;DHT22;5924;51.398;7.088;2023-04-01T03:30:31;8.40;99.90
11736;DHT22;5924;51.398;7.088;2023-04-01T03:32:57;8.50;99.90
11736;DHT22;5924;51.398;7.088;2023-04-01T03:35:24;8.40;99.90
11736;DHT22;5924;51.398;7.088;2023-04-01T03:37:51;8.50;99.90
11736;DHT22;5924;51.398;7.088;2023-04-01T03:40:17;8.50;99.90
11736;DHT22;5924;51.398;7.088;2023-04-01T03:42:43;8.50;99.90
11736;DHT22;5924;51.398;7.088;2023-04-01T03:45:09;8.50;99.90
11736;DHT22;5924;51.398;7.088;2023-04-01T03:47:35;8.50;99.90
11736;DHT22;5924;51.398;7.088;2023-04-01T03:50:01;8.40;99.90
11736;DHT22;5924;51.398;7.088;2023-04-01T03:52:27;8.50;99.90
11736;DHT22;5924;51.398;7.088;2023-04-01T03:54:52;8.50;99.90
11736;DHT22;5924;51.398;7.088;2023-04-01T03:57:18;8.10;99.90
11736;DHT22;5924;51.398;7.088;2023-04-01T03:59:43;8.40;99.90
11736;DHT22;5924;51.398;7.088;2023-04-01T04:02:09;8.40;99.90
11736;DHT22;5924;51.398;7.088;2023-04-01T04:04:35;8.40;99.90
11736;DHT22;5924;51.398;7.088;2023-04-01T04:07:01;8.50;99.90
11736;DHT22;5924;51.398;7.088;2023-04-01T04:09:26;8.40;99.90
11736;DHT22;5924;51.398;7.088;2023-04-01T04:11:52;8.40;99.90
11736;DHT22;5924;51.398;7.088;2023-04-01T04:14:18;8.40;99.90
11736;DHT22;5924;51.398;7.088;2023-04-01T04:16:44;8.50;99.90
11736;DHT22;5924;51.398;7.088;2023-04-01T04:19:09;8.40;99.90
11736;DHT22;5924;51.398;7.088;2023-04-01T04:21:35;8.40;99.90
11736;DHT22;5924;51.398;7.088;2023-04-01T04:24:02;8.40;99.90
11736;DHT22;5924;51.398;7.088;2023-04-01T04:26:27;8.50;99.90
11736;DHT22;5924;51.398;7.088;2023-04-01T04:28:54;8.50;99.90
11736;DHT22;5924;51.398;7.088;2023-04-01T04:31:21;10.00;99.90
11736;DHT22;5924;51.398;7.088;2023-04-01T04:33:47;8.50;99.90
11736;DHT22;5924;51.398;7.088;2023-04-01T04:36:13;8.50;99.90
11736;DHT22;5924;51.398;7.088;2023-04-01T04:38:40;8.50;99.90
11736;DHT22;5924;51.398;7.088;2023-04-01T04:41:16;8.50;99.90
11736;DHT22;5924;51.398;7.088;2023-04-01T04:43:49;8.50;99.90
11736;DHT22;5924;51.398;7.088;2023-04-01T04:46:15;8.50;99.90
11736;DHT22;5924;51.398;7.088;2023-04-01T04:48:41;8.50;99.90
11736;DHT22;5924;51.398;7.088;2023-04-01T04:51:07;8.50;99.90
11736;DHT22;5924;51.398;7.088;2023-04-01T04:53:32;8.50;99.90
11736;DHT22;5924;51.398;7.088;2023-04-01T04:55:58;8.50;99.90
11736;DHT22;5924;51.398;7.088;2023-04-01T04:58:24;8.50;99.90
11736;DHT22;5924;51.398;7.088;2023-04-01T05:00:49;8.50;99.90
11736;DHT22;5924;51.398;7.088;2023-04-01T05:03:15;8.50;99.90
11736;DHT22;5924;51.398;7.088;2023-04-01T05:05:48;8.50;99.90
11736;DHT22;5924;51.398;7.088;2023-04-01T05:08:14;8.50;99.90
11736;DHT22;5924;51.398;7.088;2023-04-01T05:10:40;8.50;99.90
11736;DHT22;5924;51.398;7.088;2023-04-01T05:13:05;8.50;99.90
11736;DHT22;5924;51.398;7.088;2023-04-01T05:15:32;8.50;99.90
11736;DHT22;5924;51.398;7.088;2023-04-01T05:17:57;8.50;99.90
11736;DHT22;5924;51.398;7.088;2023-04-01T05:20:23;8.50;99.90
11736;DHT22;5924;51.398;7.088;2023-04-01T05:22:48;8.50;99.90
11736;DHT22;5924;51.398;7.088;2023-04-01T05:25:14;9.10;99.90
11736;DHT22;5924;51.398;7.088;2023-04-01T05:27:40;8.50;99.90
11736;DHT22;5924;51.398;7.088;2023-04-01T05:30:06;8.60;99.90
11736;DHT22;5924;51.398;7.088;2023-04-01T05:32:32;8.50;99.90
11736;DHT22;5924;51.398;7.088;2023-04-01T05:34:57;8.50;99.90
11736;DHT22;5924;51.398;7.088;2023-04-01T05:37:23;8.50;99.90
11736;DHT22;5924;51.398;7.088;2023-04-01T05:39:48;8.60;99.90
11736;DHT22;5924;51.398;7.088;2023-04-01T05:42:14;8.50;99.90
11736;DHT22;5924;51.398;7.088;2023-04-01T05:44:41;8.60;99.90
11736;DHT22;5924;51.398;7.088;2023-04-01T05:47:07;8.60;99.90
11736;DHT22;5924;51.398;7.088;2023-04-01T05:49:33;8.60;99.90
11736;DHT22;5924;51.398;7.088;2023-04-01T05:51:59;8.60;99.90
11736;DHT22;5924;51.398;7.088;2023-04-01T05:54:24;8.60;99.90
11736;DHT22;5924;51.398;7.088;2023-04-01T05:56:50;8.60;99.90
11736;DHT22;5924;51.398;7.088;2023-04-01T05:59:16;8.60;99.90
11736;DHT22;5924;51.398;7.088;2023-04-01T06:01:41;8.60;99.90
11736;DHT22;5924;51.398;7.088;2023-04-01T06:04:12;8.60;99.90
11736;DHT22;5924;51.398;7.088;2023-04-01T06:06:39;8.60;99.90
11736;DHT22;5924;51.398;7.088;2023-04-01T06:09:26;8.60;99.90
11736;DHT22;5924;51.398;7.088;2023-04-01T06:12:30;8.60;99.90
11736;DHT22;5924;51.398;7.088;2023-04-01T06:20:59;8.70;99.90
11736;DHT22;5924;51.398;7.088;2023-04-01T06:23:49;8.70;99.90
11736;DHT22;5924;51.398;7.088;2023-04-01T06:31:57;8.70;99.90
11736;DHT22;5924;51.398;7.088;2023-04-01T06:39:51;8.70;99.90
11736;DHT22;5924;51.398;7.088;2023-04-01T06:47:46;8.70;99.90
11736;DHT22;5924;51.398;7.088;2023-04-01T06:55:35;8.80;99.90
11736;DHT22;5924;51.398;7.088;2023-04-01T06:58:05;8.80;99.90
11736;DHT22;5924;51.398;7.088;2023-04-01T07:00:34;8.80;99.90
11736;DHT22;5924;51.398;7.088;2023-04-01T07:05:44;8.80;99.90
11736;DHT22;5924;51.398;7.088;2023-04-01T07:08:13;8.90;99.90
11736;DHT22;5924;51.398;7.088;2023-04-01T07:10:50;8.90;99.90
11736;DHT22;5924;51.398;7.088;2023-04-01T07:21:56;8.90;99.90
11736;DHT22;5924;51.398;7.088;2023-04-01T07:24:29;9.00;99.90
11736;DHT22;5924;51.398;7.088;2023-04-01T07:26:57;9.00;99.90
11736;DHT22;5924;51.398;7.088;2023-04-01T07:29:23;9.00;99.90
11736;DHT22;5924;51.398;7.088;2023-04-01T07:32:07;9.00;99.90
11736;DHT22;5924;51.398;7.088;2023-04-01T07:37:22;9.00;99.90
11736;DHT22;5924;51.398;7.088;2023-04-01T07:47:46;9.00;99.90
11736;DHT22;5924;51.398;7.088;2023-04-01T07:53:20;9.10;99.90
11736;DHT22;5924;51.398;7.088;2023-04-01T07:55:58;9.10;99.90
11736;DHT22;5924;51.398;7.088;2023-04-01T08:03:43;9.00;99.90
11736;DHT22;5924;51.398;7.088;2023-04-01T08:06:28;9.00;99.90
11736;DHT22;5924;51.398;7.088;2023-04-01T08:09:06;9.00;99.90
11736;DHT22;5924;51.398;7.088;2023-04-01T08:14:48;9.00;99.90
11736;DHT22;5924;51.398;7.088;2023-04-01T08:17:40;9.00;99.90
11736;DHT22;5924;51.398;7.088;2023-04-01T08:20:48;9.00;99.90
11736;DHT22;5924;51.398;7.088;2023-04-01T08:26:36;9.00;99.90
11736;DHT22;5924;51.398;7.088;2023-04-01T08:29:18;9.00;99.90
11736;DHT22;5924;51.398;7.088;2023-04-01T08:32:00;9.00;99.90
11736;DHT22;5924;51.398;7.088;2023-04-01T08:34:37;9.00;99.90
11736;DHT22;5924;51.398;7.088;2023-04-01T08:37:07;9.00;99.90
11736;DHT22;5924;51.398;7.088;2023-04-01T08:45:34;9.10;99.90
11736;DHT22;5924;51.398;7.088;2023-04-01T08:57:07;9.10;99.90
11736;DHT22;5924;51.398;7.088;2023-04-01T08:59:48;9.10;99.90
11736;DHT22;5924;51.398;7.088;2023-04-01T09:11:30;9.10;99.90
11736;DHT22;5924;51.398;7.088;2023-04-01T09:27:28;9.20;99.90
11736;DHT22;5924;51.398;7.088;2023-04-01T09:30:27;9.20;99.90
11736;DHT22;5924;51.398;7.088;2023-04-01T09:38:55;9.20;99.90
11736;DHT22;5924;51.398;7.088;2023-04-01T09:44:34;9.20;99.90
11736;DHT22;5924;51.398;7.088;2023-04-01T09:53:14;9.30;99.90
11736;DHT22;5924;51.398;7.088;2023-04-01T10:01:14;9.30;99.90
11736;DHT22;5924;51.398;7.088;2023-04-01T10:07:03;9.50;99.90
11736;DHT22;5924;51.398;7.088;2023-04-01T10:15:23;11.10;99.90
11736;DHT22;5924;51.398;7.088;2023-04-01T10:23:45;9.90;99.90
11736;DHT22;5924;51.398;7.088;2023-04-01T10:47:02;9.80;99.90
11736;DHT22;5924;51.398;7.088;2023-04-01T11:12:56;9.70;99.90
11736;DHT22;5924;51.398;7.088;2023-04-01T11:33:02;9.50;99.90
11736;DHT22;5924;51.398;7.088;2023-04-01T11:36:00;9.50;99.90
11736;DHT22;5924;51.398;7.088;2023-04-01T11:41:19;9.60;99.90
11736;DHT22;5924;51.398;7.088;2023-04-01T11:44:16;9.60;99.90
11736;DHT22;5924;51.398;7.088;2023-04-01T11:46:52;9.60;99.90
11736;DHT22;5924;51.398;7.088;2023-04-01T12:10:33;9.70;99.90
11736;DHT22;5924;51.398;7.088;2023-04-01T12:13:19;9.70;99.90
11736;DHT22;5924;51.398;7.088;2023-04-01T12:16:07;9.70;99.90
11736;DHT22;5924;51.398;7.088;2023-04-01T12:18:55;9.70;99.90
11736;DHT22;5924;51.398;7.088;2023-04-01T12:21:45;9.70;99.90
11736;DHT22;5924;51.398;7.088;2023-04-01T12:40:26;9.80;99.90
11736;DHT22;5924;51.398;7.088;2023-04-01T13:01:49;9.90;99.90
11736;DHT22;5924;51.398;7.088;2023-04-01T13:04:39;9.90;99.90
11736;DHT22;5924;51.398;7.088;2023-04-01T13:07:31;10.00;99.90
11736;DHT22;5924;51.398;7.088;2023-04-01T13:10:27;10.10;99.90
11736;DHT22;5924;51.398;7.088;2023-04-01T13:16:01;10.00;99.90
11736;DHT22;5924;51.398;7.088;2023-04-01T13:19:02;10.00;99.90
11736;DHT22;5924;51.398;7.088;2023-04-01T13:21:49;9.90;99.90
11736;DHT22;5924;51.398;7.088;2023-04-01T13:32:58;9.80;99.90
11736;DHT22;5924;51.398;7.088;2023-04-01T13:44:19;9.70;99.90
11736;DHT22;5924;51.398;7.088;2023-04-01T14:03:49;9.40;99.90
11736;DHT22;5924;51.398;7.088;2023-04-01T14:20:45;9.50;99.90
11736;DHT22;5924;51.398;7.088;2023-04-01T14:31:51;8.40;99.90
11736;DHT22;5924;51.398;7.088;2023-04-01T14:40:12;9.50;99.90
11736;DHT22;5924;51.398;7.088;2023-04-01T14:42:46;9.40;99.90
11736;DHT22;5924;51.398;7.088;2023-04-01T14:50:54;9.40;99.90
11736;DHT22;5924;51.398;7.088;2023-04-01T14:55:51;9.50;99.90
11736;DHT22;5924;51.398;7.088;2023-04-01T14:58:20;9.50;99.90
11736;DHT22;5924;51.398;7.088;2023-04-01T15:03:40;9.50;99.90
11736;DHT22;5924;51.398;7.088;2023-04-01T15:25:19;9.70;99.90
11736;DHT22;5924;51.398;7.088;2023-04-01T15:30:33;9.70;99.90
11736;DHT22;5924;51.398;7.088;2023-04-01T15:41:14;9.80;99.90
11736;DHT22;5924;51.398;7.088;2023-04-01T16:00:28;7.10;99.90
11736;DHT22;5924;51.398;7.088;2023-04-01T16:05:25;9.60;99.90
11736;DHT22;5924;51.398;7.088;2023-04-01T16:13:30;9.60;99.90
11736;DHT22;5924;51.398;7.088;2023-04-01T16:16:23;9.60;99.90
11736;DHT22;5924;51.398;7.088;2023-04-01T16:24:46;9.60;99.90
11736;DHT22;5924;51.398;7.088;2023-04-01T16:27:14;9.50;99.90
11736;DHT22;5924;51.398;7.088;2023-04-01T16:30:03;9.50;99.90
11736;DHT22;5924;51.398;7.088;2023-04-01T16:33:04;10.00;99.90
11736;DHT22;5924;51.398;7.088;2023-04-01T16:38:40;9.50;99.90
11736;DHT22;5924;51.398;7.088;2023-04-01T16:41:24;9.50;99.90
11736;DHT22;5924;51.398;7.088;2023-04-01T16:43:55;9.50;99.90
11736;DHT22;5924;51.398;7.088;2023-04-01T16:46:41;9.50;99.90
11736;DHT22;5924;51.398;7.088;2023-04-01T16:57:52;9.50;99.90
11736;DHT22;5924;51.398;7.088;2023-04-01T17:03:13;9.70;99.90
11736;DHT22;5924;51.398;7.088;2023-04-01T17:06:11;9.50;99.90
11736;DHT22;5924;51.398;7.088;2023-04-01T17:11:57;9.50;99.90
11736;DHT22;5924;51.398;7.088;2023-04-01T17:14:35;9.40;99.90
11736;DHT22;5924;51.398;7.088;2023-04-01T17:19:49;9.40;99.90
11736;DHT22;5924;51.398;7.088;2023-04-01T17:31:26;9.40;99.90
11736;DHT22;5924;51.398;7.088;2023-04-01T17:39:42;9.30;99.90
11736;DHT22;5924;51.398;7.088;2023-04-01T17:48:24;9.30;99.90
11736;DHT22;5924;51.398;7.088;2023-04-01T17:50:58;9.30;99.90
11736;DHT22;5924;51.398;7.088;2023-04-01T17:59:06;9.30;99.90
11736;DHT22;5924;51.398;7.088;2023-04-01T18:07:26;9.20;99.90
11736;DHT22;5924;51.398;7.088;2023-04-01T18:15:31;9.20;99.90
11736;DHT22;5924;51.398;7.088;2023-04-01T18:21:00;9.20;99.90
11736;DHT22;5924;51.398;7.088;2023-04-01T18:26:27;9.20;99.90
11736;DHT22;5924;51.398;7.088;2023-04-01T18:28:57;9.20;99.90
11736;DHT22;5924;51.398;7.088;2023-04-01T18:31:32;9.20;99.90
11736;DHT22;5924;51.398;7.088;2023-04-01T18:36:54;9.20;99.90
11736;DHT22;5924;51.398;7.088;2023-04-01T18:39:46;9.20;99.90
11736;DHT22;5924;51.398;7.088;2023-04-01T18:50:52;8.70;99.90
11736;DHT22;5924;51.398;7.088;2023-04-01T18:55:59;9.20;99.90
11736;DHT22;5924;51.398;7.088;2023-04-01T18:58:36;9.20;99.90
11736;DHT22;5924;51.398;7.088;2023-04-01T19:01:24;9.20;99.90
11736;DHT22;5924;51.398;7.088;2023-04-01T19:06:53;9.20;99.90
11736;DHT22;5924;51.398;7.088;2023-04-01T19:09:46;9.20;99.90
11736;DHT22;5924;51.398;7.088;2023-04-01T19:20:37;9.20;99.90
11736;DHT22;5924;51.398;7.088;2023-04-01T19:25:57;9.20;99.90
11736;DHT22;5924;51.398;7.088;2023-04-01T19:28:42;9.10;99.90
11736;DHT22;5924;51.398;7.088;2023-04-01T19:33:58;9.10;99.90
11736;DHT22;5924;51.398;7.088;2023-04-01T19:36:49;9.10;99.90
11736;DHT22;5924;51.398;7.088;2023-04-01T19:39:37;9.10;99.90
11736;DHT22;5924;51.398;7.088;2023-04-01T19:49:45;9.20;99.90
11736;DHT22;5924;51.398;7.088;2023-04-01T19:52:20;9.20;99.90
11736;DHT22;5924;51.398;7.088;2023-04-01T19:55:34;9.20;99.90
11736;DHT22;5924;51.398;7.088;2023-04-01T20:00:50;9.20;99.90
11736;DHT22;5924;51.398;7.088;2023-04-01T20:03:54;9.20;99.90
11736;DHT22;5924;51.398;7.088;2023-04-01T20:06:28;9.20;99.90
11736;DHT22;5924;51.398;7.088;2023-04-01T20:15:04;9.10;99.90
11736;DHT22;5924;51.398;7.088;2023-04-01T20:17:46;9.00;99.90
11736;DHT22;5924;51.398;7.088;2023-04-01T20:20:28;9.00;99.90
11736;DHT22;5924;51.398;7.088;2023-04-01T20:23:07;8.90;99.90
11736;DHT22;5924;51.398;7.088;2023-04-01T20:25:52;8.90;99.90
11736;DHT22;5924;51.398;7.088;2023-04-01T20:44:59;8.70;99.90
11736;DHT22;5924;51.398;7.088;2023-04-01T20:50:51;8.60;99.90
11736;DHT22;5924;51.398;7.088;2023-04-01T20:56:29;8.50;99.90
11736;DHT22;5924;51.398;7.088;2023-04-01T20:59:22;8.50;99.90
11736;DHT22;5924;51.398;7.088;2023-04-01T21:16:52;8.30;99.90
11736;DHT22;5924;51.398;7.088;2023-04-01T21:19:42;8.30;99.90
11736;DHT22;5924;51.398;7.088;2023-04-01T21:33:49;8.10;99.90
11736;DHT22;5924;51.398;7.088;2023-04-01T21:39:33;8.10;99.90
11736;DHT22;5924;51.398;7.088;2023-04-01T21:42:06;8.00;99.90
11736;DHT22;5924;51.398;7.088;2023-04-01T21:50:26;8.00;99.90
11736;DHT22;5924;51.398;7.088;2023-04-01T22:18:33;6.80;99.90
11736;DHT22;5924;51.398;7.088;2023-04-01T22:21:07;7.40;99.90
11736;DHT22;5924;51.398;7.088;2023-04-01T22:24:25;7.30;99.90
11736;DHT22;5924;51.398;7.088;2023-04-01T22:26:56;7.30;99.90
11736;DHT22;5924;51.398;7.088;2023-04-01T22:35:14;7.20;99.90
11736;DHT22;5924;51.398;7.088;2023-04-01T22:40:33;7.20;99.90
11736;DHT22;5924;51.398;7.088;2023-04-01T22:43:06;7.20;99.90
11736;DHT22;5924;51.398;7.088;2023-04-01T22:46:05;7.10;99.90
11736;DHT22;5924;51.398;7.088;2023-04-01T22:48:47;7.10;99.90
11736;DHT22;5924;51.398;7.088;2023-04-01T22:51:39;7.10;99.90
11736;DHT22;5924;51.398;7.088;2023-04-01T23:02:31;7.00;99.90
11736;DHT22;5924;51.398;7.088;2023-04-01T23:05:02;6.90;99.90
11736;DHT22;5924;51.398;7.088;2023-04-01T23:13:03;6.80;99.90
11736;DHT22;5924;51.398;7.088;2023-04-01T23:15:29;6.80;99.90
11736;DHT22;5924;51.398;7.088;2023-04-01T23:26:59;6.70;99.90
11736;DHT22;5924;51.398;7.088;2023-04-01T23:29:26;6.70;99.90
11736;DHT22;5924;51.398;7.088;2023-04-01T23:32:02;6.70;99.90
11736;DHT22;5924;51.398;7.088;2023-04-01T23:34:30;6.70;99.90
11736;DHT22;5924;51.398;7.088;2023-04-01T23:37:08;6.60;99.90
11736;DHT22;5924;51.398;7.088;2023-04-01T23:39:41;6.60;99.90
11736;DHT22;5924;51.398;7.088;2023-04-01T23:44:45;6.60;99.90
11736;DHT22;5924;51.398;7.088;2023-04-01T23:47:14;6.60;99.90
11736;DHT22;5924;51.398;7.088;2023-04-01T23:49:50;6.50;99.90
11736;DHT22;5924;51.398;7.088;2023-04-01T23:52:26;6.50;99.90
11736;DHT22;5924;51.398;7.088;2023-04-01T23:55:44;6.50;99.90
